Glencoe, Minnesota
Current Conditions -  °F | °C
As of 8:34 PM on Tuesday 21 Oct 2014 (Local Time) from KGYL Reporting Station
Clear Clear  
Wind Chill: 46°   Ceiling: Unl
Heat Index: 49°   Visibility: 10mi
Dew Point: 42°   Wind: 9mph
Humidity: 77%   Direction: 100°E
Pressure: 30.12"   Gusts: NA
Location:  44.77°N, 94.15°W
Report Text: KGYL 220134Z AUTO 10008KT 10SM CLR 10/06 A3012 RMK AO2 T00970058
Loading
Personal Weather Stations






























Interactive Weather Map
Tropical Storm Tracking
New forecast layout! Learn more

10-Day Weather Forecast

Advertisements
Track Severe Weather on mobile